Turner, Montana
Current Conditions -  °F | °C
As of 7:53 AM on Sunday 23 Nov 2014 (Local Time) from KHVR Reporting Station
Scattered Clouds Scattered Clouds  
Wind Chill: 21°   Ceiling: Unl
Heat Index: 30°   Visibility: 10mi
Dew Point: 24°   Wind: 10mph
Humidity: 79%   Direction: 280°W
Pressure: 29.86"   Gusts: NA
Location:  48.84°N, 108.41°W
Report Text: KHVR 231453Z AUTO 28009KT 10SM SCT100 M01/M04 A2986 RMK AO2 SLP133 T10111044 51018
Loading
Personal Weather Stations






























Interactive Weather Map New forecast layout! Learn more

10-Day Weather Forecast

Advertisements
Track Severe Weather on mobile